Time;durP1;ratioP1;P1;durP2;ratioP2;P2;SDS_P1;SDS_P2;PMS_P1;PMS_P2;Temp;Humidity;BMP_temperature;BMP_pressure;BME280_temperature;BME280_humidity;BME280_pressure;Samples;Min_cycle;Max_cycle;Signal;HPM_P1;HPM_P2
2022/09/06 00:01:13;;;;;;;4.68;2.15;;;26.00;82.40;;;;;;6342976;22;20344;-80
2022/09/06 00:03:39;;;;;;;3.95;2.60;;;26.00;82.40;;;;;;6369742;22;20455;-80
2022/09/06 00:06:11;;;;;;;4.47;2.47;;;26.00;82.40;;;;;;6370435;22;19998;-80
2022/09/06 00:08:37;;;;;;;3.78;2.08;;;25.90;82.40;;;;;;6369953;22;20002;-80
2022/09/06 00:11:03;;;;;;;5.07;2.42;;;25.90;82.50;;;;;;6370673;22;19998;-80
2022/09/06 00:13:29;;;;;;;5.05;2.47;;;25.90;82.50;;;;;;6370010;22;20009;-80
2022/09/06 00:15:54;;;;;;;3.58;2.40;;;25.90;82.60;;;;;;6370664;22;19998;-79
2022/09/06 00:18:20;;;;;;;3.55;2.38;;;25.90;82.70;;;;;;6370715;22;20002;-82
2022/09/06 00:20:46;;;;;;;2.63;2.42;;;25.90;82.80;;;;;;6370773;22;19998;-81
2022/09/06 00:23:12;;;;;;;5.38;2.45;;;25.90;82.80;;;;;;6370650;22;20325;-81
2022/09/06 00:25:37;;;;;;;4.38;2.70;;;25.90;82.70;;;;;;6369946;22;20002;-84
2022/09/06 00:28:04;;;;;;;2.80;2.60;;;25.90;82.80;;;;;;6369325;22;20412;-80
2022/09/06 00:30:32;;;;;;;4.30;2.88;;;25.80;82.70;;;;;;6369965;22;20077;-80
2022/09/06 00:32:58;;;;;;;3.53;2.25;;;25.80;82.70;;;;;;6369283;22;20447;-80
2022/09/06 00:35:25;;;;;;;2.85;2.13;;;25.90;82.70;;;;;;6369430;22;19998;-80
2022/09/06 00:37:55;;;;;;;4.05;2.47;;;25.90;82.80;;;;;;6368984;22;20328;-81
2022/09/06 00:40:21;;;;;;;;;;;25.80;82.90;;;;;;6370040;22;20081;-82
2022/09/06 00:42:46;;;;;;;3.40;2.85;;;25.80;82.90;;;;;;6369415;22;19898;-81
2022/09/06 00:45:13;;;;;;;3.45;2.28;;;25.80;82.90;;;;;;6369137;22;20005;-81
2022/09/06 00:47:41;;;;;;;3.55;2.85;;;25.80;82.90;;;;;;6368542;22;20002;-81
2022/09/06 00:50:08;;;;;;;3.65;2.28;;;25.80;83.00;;;;;;6368539;22;20058;-82
2022/09/06 00:52:35;;;;;;;5.90;2.30;;;25.80;83.10;;;;;;6368966;22;20024;-79
2022/09/06 00:55:01;;;;;;;3.67;2.70;;;25.80;83.10;;;;;;6342209;22;20335;-78
2022/09/06 00:57:30;;;;;;;3.53;2.55;;;25.80;83.00;;;;;;6368343;22;20003;-78
2022/09/06 00:59:57;;;;;;;3.60;2.83;;;25.80;82.80;;;;;;6369833;22;20002;-79
2022/09/06 01:02:23;;;;;;;3.85;2.97;;;25.80;82.60;;;;;;6369734;22;19998;-79
2022/09/06 01:04:50;;;;;;;3.00;2.70;;;25.80;82.50;;;;;;6369583;22;20469;-79
2022/09/06 01:07:22;;;;;;;5.30;2.90;;;25.80;82.50;;;;;;6370218;22;20005;-80
2022/09/06 01:09:48;;;;;;;4.50;3.00;;;25.80;82.50;;;;;;6369685;22;20029;-80
2022/09/06 01:12:33;;;;;;;3.78;2.65;;;25.80;82.50;;;;;;6369128;22;20417;-80
2022/09/06 01:15:04;;;;;;;4.65;3.10;;;25.70;82.40;;;;;;6342468;22;20007;-80
2022/09/06 01:17:45;;;;;;;5.63;3.22;;;25.70;82.40;;;;;;6370515;22;20006;-80
2022/09/06 01:20:22;;;;;;;4.40;3.42;;;25.70;82.30;;;;;;6367458;22;20178;-78
2022/09/06 01:22:51;;;;;;;4.82;3.00;;;25.70;82.40;;;;;;6368807;22;20036;-77
2022/09/06 01:25:48;;;;;;;3.25;2.70;;;25.70;82.40;;;;;;6340286;22;20009;-78
2022/09/06 01:28:26;;;;;;;4.45;3.10;;;25.60;82.40;;;;;;6369373;22;20008;-76
2022/09/06 01:31:26;;;;;;;3.58;2.92;;;25.70;82.70;;;;;;6368281;22;20047;-77
2022/09/06 01:34:07;;;;;;;3.53;2.50;;;25.70;82.60;;;;;;6358556;22;20016;-77
2022/09/06 01:36:39;;;;;;;4.78;3.58;;;25.60;82.70;;;;;;6368968;22;20002;-77
2022/09/06 01:39:05;;;;;;;3.88;2.85;;;25.60;82.60;;;;;;6367880;22;20474;-77
2022/09/06 01:41:32;;;;;;;3.58;2.90;;;25.60;82.80;;;;;;6369231;22;20018;-78
2022/09/06 01:43:58;;;;;;;4.35;3.03;;;25.50;82.70;;;;;;6368606;22;19999;-78
2022/09/06 01:46:49;;;;;;;4.55;3.15;;;25.50;82.70;;;;;;6369322;22;20018;-78
2022/09/06 01:49:48;;;;;;;5.15;3.35;;;25.50;82.80;;;;;;6368426;22;20051;-79
2022/09/06 01:52:40;;;;;;;3.58;2.78;;;25.50;82.80;;;;;;6289133;22;20074;-78
2022/09/06 01:55:21;;;;;;;8.50;3.05;;;25.50;82.90;;;;;;6367812;22;20043;-79
2022/09/06 01:58:24;;;;;;;5.63;3.42;;;25.50;83.00;;;;;;6368793;22;20006;-78
2022/09/06 02:00:56;;;;;;;5.88;3.00;;;25.50;83.10;;;;;;6367602;22;19994;-77
2022/09/06 02:03:41;;;;;;;6.63;3.58;;;25.40;83.10;;;;;;6369242;22;20002;-77
2022/09/06 02:06:13;;;;;;;5.30;3.17;;;25.40;83.00;;;;;;6369589;22;20468;-78
2022/09/06 02:08:44;;;;;;;4.15;3.17;;;25.40;83.10;;;;;;6341724;22;20067;-77
2022/09/06 02:11:13;;;;;;;3.25;2.72;;;25.40;83.20;;;;;;6371392;22;20010;-77
2022/09/06 02:13:46;;;;;;;3.63;3.10;;;25.30;83.20;;;;;;6342721;22;20010;-78
2022/09/06 02:16:16;;;;;;;9.55;5.20;;;25.30;83.40;;;;;;6371785;22;20400;-78
2022/09/06 02:18:46;;;;;;;3.83;3.28;;;25.20;83.80;;;;;;6371405;22;20012;-77
2022/09/06 02:21:15;;;;;;;7.32;3.72;;;25.20;84.00;;;;;;6371541;22;19995;-77
2022/09/06 02:23:43;;;;;;;6.40;2.67;;;25.10;83.80;;;;;;6342914;22;20361;-77
2022/09/06 02:26:28;;;;;;;6.65;3.47;;;25.20;83.80;;;;;;6342646;22;20002;-78
2022/09/06 02:28:54;;;;;;;4.72;3.38;;;25.10;84.00;;;;;;6370388;22;20017;-78
2022/09/06 02:31:28;;;;;;;3.58;3.22;;;25.10;84.10;;;;;;6371602;22;20003;-77
2022/09/06 02:33:54;;;;;;;7.95;5.00;;;25.10;84.00;;;;;;6342971;22;20063;-78
2022/09/06 02:36:20;;;;;;;7.10;4.78;;;25.10;83.80;;;;;;6371693;22;19999;-78
2022/09/06 02:38:46;;;;;;;5.13;4.10;;;25.10;83.60;;;;;;6370970;22;20432;-78
2022/09/06 02:41:15;;;;;;;6.28;4.78;;;25.10;84.20;;;;;;6371154;22;20043;-80
2022/09/06 02:43:44;;;;;;;6.35;4.70;;;25.10;83.40;;;;;;6371357;22;20456;-79
2022/09/06 02:46:11;;;;;;;6.05;4.20;;;25.10;83.30;;;;;;6371634;22;20006;-79
2022/09/06 02:48:37;;;;;;;6.85;4.82;;;25.10;83.40;;;;;;6370386;22;20332;-81
2022/09/06 02:51:07;;;;;;;6.68;5.20;;;25.10;83.20;;;;;;6371008;22;19998;-81
2022/09/06 02:53:33;;;;;;;5.85;5.10;;;25.10;83.30;;;;;;6370954;22;20002;-81
2022/09/06 02:55:59;;;;;;;6.43;4.78;;;25.00;83.20;;;;;;6371982;22;20436;-81
2022/09/06 02:58:25;;;;;;;5.97;4.53;;;25.00;83.30;;;;;;6342919;22;20007;-82
2022/09/06 03:00:51;;;;;;;8.18;5.00;;;25.00;83.40;;;;;;6370607;22;20328;-82
2022/09/06 03:03:19;;;;;;;5.13;4.57;;;25.00;83.50;;;;;;6370998;22;19994;-82
2022/09/06 03:05:47;;;;;;;5.65;3.95;;;24.90;83.50;;;;;;6371404;22;20029;-81
2022/09/06 03:08:13;;;;;;;6.80;5.70;;;24.90;83.60;;;;;;6371583;22;20439;-81
2022/09/06 03:10:38;;;;;;;6.18;4.70;;;24.90;83.60;;;;;;6343409;22;20002;-81
2022/09/06 03:13:04;;;;;;;6.53;5.43;;;24.90;83.70;;;;;;6371223;22;20421;-81
2022/09/06 03:15:29;;;;;;;5.95;5.35;;;24.80;83.70;;;;;;6371301;22;20071;-82
2022/09/06 03:17:58;;;;;;;8.32;5.45;;;24.80;83.90;;;;;;6370741;22;20016;-82
2022/09/06 03:20:24;;;;;;;7.22;5.70;;;24.70;83.90;;;;;;6370188;22;19999;-83
2022/09/06 03:22:50;;;;;;;6.82;5.05;;;24.70;83.90;;;;;;6371421;22;20002;-84
2022/09/06 03:25:16;;;;;;;7.15;6.13;;;24.60;84.00;;;;;;6343000;22;20002;-81
2022/09/06 03:27:42;;;;;;;7.75;5.93;;;24.60;84.00;;;;;;6370642;22;20432;-81
2022/09/06 03:30:09;;;;;;;8.95;6.28;;;24.60;84.10;;;;;;6371620;22;19999;-83
2022/09/06 03:32:35;;;;;;;11.77;8.98;;;24.50;84.10;;;;;;6343211;22;20075;-82
2022/09/06 03:35:00;;;;;;;12.05;8.82;;;24.40;84.80;;;;;;6369401;22;20424;-81
2022/09/06 03:37:26;;;;;;;10.40;8.77;;;24.10;85.70;;;;;;6370223;22;20002;-82
2022/09/06 03:39:52;;;;;;;10.63;6.65;;;24.00;86.40;;;;;;6370655;22;20073;-82
2022/09/06 03:42:17;;;;;;;8.13;5.63;;;23.90;86.50;;;;;;6370176;22;20009;-81
2022/09/06 03:44:43;;;;;;;12.13;7.25;;;23.90;86.60;;;;;;6369910;22;19998;-81
2022/09/06 03:47:09;;;;;;;14.63;8.10;;;23.90;86.70;;;;;;6341745;22;20109;-80
2022/09/06 03:49:34;;;;;;;11.32;7.18;;;23.90;86.80;;;;;;6370542;22;19998;-80
2022/09/06 03:52:01;;;;;;;10.05;6.55;;;23.80;87.10;;;;;;6369777;22;20361;-81
2022/09/06 03:54:27;;;;;;;6.28;5.63;;;23.80;86.90;;;;;;6370179;22;20073;-81
2022/09/06 03:56:54;;;;;;;9.27;6.53;;;23.80;87.10;;;;;;6368551;22;20006;-82
2022/09/06 03:59:19;;;;;;;9.05;5.68;;;23.80;86.60;;;;;;6368777;22;20005;-82
2022/09/06 04:01:45;;;;;;;9.35;6.78;;;23.90;86.30;;;;;;6369820;22;20086;-82
2022/09/06 04:04:11;;;;;;;7.93;5.97;;;23.90;86.10;;;;;;6368695;22;19990;-82
2022/09/06 04:06:36;;;;;;;7.70;5.82;;;24.00;85.70;;;;;;6370202;22;20095;-80
2022/09/06 04:09:03;;;;;;;8.38;5.88;;;24.10;85.60;;;;;;6370139;22;20073;-80
2022/09/06 04:11:28;;;;;;;6.07;5.47;;;24.20;85.40;;;;;;6369078;22;20336;-79
2022/09/06 04:13:54;;;;;;;8.52;7.07;;;24.30;85.10;;;;;;6369768;22;20020;-78
2022/09/06 04:16:20;;;;;;;7.47;6.60;;;24.30;84.70;;;;;;6370005;22;19998;-79
2022/09/06 04:18:45;;;;;;;9.15;5.80;;;24.30;84.50;;;;;;6368973;22;20340;-78
2022/09/06 04:21:11;;;;;;;8.23;6.25;;;24.40;84.40;;;;;;6368404;22;20325;-79
2022/09/06 04:23:37;;;;;;;9.52;7.00;;;24.40;84.00;;;;;;6369516;22;19994;-79
2022/09/06 04:26:03;;;;;;;8.73;6.00;;;24.30;84.10;;;;;;6341645;22;20051;-80
2022/09/06 04:28:29;;;;;;;7.75;6.53;;;24.20;84.20;;;;;;6369471;22;20006;-81
2022/09/06 04:30:57;;;;;;;8.20;6.72;;;24.20;84.30;;;;;;6369549;22;19998;-81
2022/09/06 04:33:26;;;;;;;8.05;5.80;;;24.20;84.20;;;;;;6369904;22;20025;-81
2022/09/06 04:35:57;;;;;;;8.07;7.10;;;24.20;84.10;;;;;;6369622;22;20005;-80
2022/09/06 04:38:24;;;;;;;9.23;7.75;;;24.20;84.10;;;;;;6342256;22;20081;-80
2022/09/06 04:40:50;;;;;;;8.02;6.43;;;24.20;84.00;;;;;;6369680;22;20003;-80
2022/09/06 04:43:16;;;;;;;10.07;7.47;;;24.20;84.00;;;;;;6370216;22;20102;-81
2022/09/06 04:45:44;;;;;;;11.93;10.02;;;24.30;84.00;;;;;;6369132;22;20078;-81
2022/09/06 04:48:10;;;;;;;16.00;9.50;;;24.20;84.10;;;;;;6341834;22;20045;-81
2022/09/06 04:50:36;;;;;;;11.10;8.25;;;23.90;84.90;;;;;;6366779;22;20448;-81
2022/09/06 04:53:02;;;;;;;9.73;6.68;;;23.90;85.30;;;;;;6369925;22;20002;-76
2022/09/06 04:55:30;;;;;;;11.20;7.00;;;23.90;85.10;;;;;;6340679;22;20029;-76
2022/09/06 04:57:59;;;;;;;11.65;7.82;;;23.90;85.00;;;;;;6364576;22;20038;-73
2022/09/06 05:00:26;;;;;;;10.73;8.05;;;24.00;85.20;;;;;;6368981;22;20012;-74
2022/09/06 05:02:52;;;;;;;8.55;6.78;;;24.00;85.00;;;;;;6367236;22;20006;-74
2022/09/06 05:05:17;;;;;;;13.90;8.45;;;24.10;84.90;;;;;;6367985;22;20002;-74
2022/09/06 05:07:43;;;;;;;13.57;10.27;;;24.00;84.70;;;;;;6366058;22;20085;-79
2022/09/06 05:10:09;;;;;;;9.07;8.18;;;23.80;85.20;;;;;;6369232;22;19994;-74
2022/09/06 05:12:34;;;;;;;12.93;11.32;;;23.70;85.30;;;;;;6368357;22;19999;-74
2022/09/06 05:15:00;;;;;;;10.68;9.43;;;23.60;85.70;;;;;;6367990;22;19994;-76
2022/09/06 05:17:29;;;;;;;9.20;7.88;;;23.50;86.40;;;;;;6367550;22;20030;-79
2022/09/06 05:19:54;;;;;;;11.35;7.80;;;23.40;86.70;;;;;;6370449;22;20047;-78
2022/09/06 05:22:20;;;;;;;7.85;7.05;;;23.50;86.60;;;;;;6369781;22;19998;-73
2022/09/06 05:24:46;;;;;;;13.25;10.90;;;23.50;86.30;;;;;;6369729;22;20029;-74
2022/09/06 05:27:13;;;;;;;14.73;9.50;;;23.60;86.40;;;;;;6368274;22;19998;-74
2022/09/06 05:29:38;;;;;;;9.95;7.72;;;23.50;86.40;;;;;;6368952;22;20009;-75
2022/09/06 05:32:04;;;;;;;10.82;8.20;;;23.50;86.50;;;;;;6368822;22;20332;-74
2022/09/06 05:34:30;;;;;;;13.93;9.25;;;23.50;86.60;;;;;;6367918;22;20002;-73
2022/09/06 05:36:55;;;;;;;10.70;9.60;;;23.50;86.40;;;;;;6367120;22;20165;-81
2022/09/06 05:39:21;;;;;;;9.10;8.20;;;23.50;86.50;;;;;;6368219;22;20362;-81
2022/09/06 05:41:47;;;;;;;11.35;8.40;;;23.40;86.50;;;;;;6368240;22;20032;-81
2022/09/06 05:44:13;;;;;;;12.43;9.80;;;23.50;86.40;;;;;;6368323;22;19995;-81
2022/09/06 05:46:44;;;;;;;10.52;9.13;;;23.40;86.40;;;;;;6369881;22;20182;-72
2022/09/06 05:49:11;;;;;;;11.68;8.52;;;23.40;86.40;;;;;;6342135;22;20058;-74
2022/09/06 05:51:38;;;;;;;13.05;8.15;;;23.40;86.20;;;;;;6369590;22;19999;-74
2022/09/06 05:54:03;;;;;;;12.25;8.63;;;23.40;86.00;;;;;;6368917;22;19994;-74
2022/09/06 05:56:29;;;;;;;11.60;9.43;;;23.50;85.90;;;;;;6369092;22;20010;-74
2022/09/06 05:58:55;;;;;;;12.82;8.73;;;23.60;85.70;;;;;;6369293;22;20006;-74
2022/09/06 06:01:25;;;;;;;10.95;8.63;;;23.60;85.50;;;;;;6369008;22;19995;-73
2022/09/06 06:03:54;;;;;;;12.18;8.65;;;23.60;85.40;;;;;;6369722;22;20040;-75
2022/09/06 06:06:21;;;;;;;11.65;7.80;;;23.60;85.30;;;;;;6369399;22;20434;-75
2022/09/06 06:08:47;;;;;;;13.88;9.10;;;23.60;85.70;;;;;;6369965;22;20006;-75
2022/09/06 06:11:12;;;;;;;9.75;8.75;;;23.70;85.10;;;;;;6369209;22;20525;-75
2022/09/06 06:13:38;;;;;;;15.32;10.20;;;23.80;84.90;;;;;;6339077;22;20038;-76
2022/09/06 06:16:08;;;;;;;12.32;10.05;;;23.80;84.90;;;;;;6369180;22;19999;-76
2022/09/06 06:18:34;;;;;;;13.27;10.97;;;23.70;85.10;;;;;;6341290;22;20010;-76
2022/09/06 06:21:10;;;;;;;10.38;8.40;;;23.60;85.20;;;;;;6367669;22;20212;-80
2022/09/06 06:23:36;;;;;;;11.90;8.70;;;23.70;85.10;;;;;;6340921;22;20002;-76
2022/09/06 06:26:02;;;;;;;14.32;9.70;;;23.80;85.00;;;;;;6368574;22;19998;-76
2022/09/06 06:28:28;;;;;;;14.20;10.95;;;23.70;85.30;;;;;;6369809;22;20002;-80
2022/09/06 06:30:53;;;;;;;9.75;8.73;;;23.80;85.10;;;;;;6369115;22;20637;-76
2022/09/06 06:33:19;;;;;;;14.02;11.93;;;23.80;85.00;;;;;;6341994;22;20010;-74
2022/09/06 06:36:06;;;;;;;12.02;10.68;;;23.80;85.30;;;;;;6363403;22;19998;-74
2022/09/06 06:38:33;;;;;;;14.60;10.32;;;23.80;85.40;;;;;;6366054;22;20003;-82
2022/09/06 06:40:59;;;;;;;11.90;9.73;;;23.90;85.30;;;;;;6340913;22;20003;-83
2022/09/06 06:43:26;;;;;;;11.82;9.13;;;23.90;85.30;;;;;;6368516;22;19998;-83
2022/09/06 06:45:52;;;;;;;13.57;10.20;;;23.90;85.00;;;;;;6369639;22;19999;-83
2022/09/06 06:48:18;;;;;;;16.67;14.05;;;23.90;85.00;;;;;;6368325;22;20002;-83
2022/09/06 06:50:44;;;;;;;14.25;11.43;;;23.90;85.30;;;;;;6369892;22;20030;-83
2022/09/06 06:53:10;;;;;;;10.63;8.77;;;23.90;85.50;;;;;;6369263;22;20006;-83
2022/09/06 06:55:35;;;;;;;10.98;9.18;;;23.90;85.30;;;;;;6371123;22;20008;-84
2022/09/06 06:58:02;;;;;;;17.35;10.10;;;23.90;85.30;;;;;;6337796;22;20440;-83
2022/09/06 07:00:28;;;;;;;13.88;10.68;;;24.00;85.10;;;;;;6339949;22;20302;-83
2022/09/06 07:02:55;;;;;;;15.93;12.93;;;24.00;85.50;;;;;;6339185;22;19995;-84
2022/09/06 07:05:22;;;;;;;14.02;12.27;;;24.00;85.70;;;;;;6339640;22;19995;-77
2022/09/06 07:07:47;;;;;;;13.25;10.38;;;23.90;86.10;;;;;;6338773;22;19999;-76
2022/09/06 07:10:13;;;;;;;14.15;9.93;;;23.90;86.10;;;;;;6337761;22;20010;-76
2022/09/06 07:12:39;;;;;;;14.98;12.38;;;24.00;86.10;;;;;;6339428;22;20002;-76
2022/09/06 07:15:05;;;;;;;9.18;7.35;;;24.10;86.10;;;;;;6337081;22;20017;-76
2022/09/06 07:17:31;;;;;;;12.27;8.98;;;24.20;85.60;;;;;;6338713;22;20003;-76
2022/09/06 07:19:56;;;;;;;8.82;7.72;;;24.20;85.70;;;;;;6338073;22;20025;-77
2022/09/06 07:22:22;;;;;;;10.73;8.38;;;24.30;85.50;;;;;;6337784;22;20421;-77
2022/09/06 07:24:48;;;;;;;10.63;9.27;;;24.50;85.30;;;;;;6339318;22;20073;-76
2022/09/06 07:27:13;;;;;;;10.07;7.15;;;24.50;85.30;;;;;;6338903;22;20003;-76
2022/09/06 07:29:39;;;;;;;8.13;7.05;;;24.60;84.90;;;;;;6339227;22;20002;-74
2022/09/06 07:32:05;;;;;;;152.40;135.95;;;24.70;84.80;;;;;;6338584;22;20010;-75
2022/09/06 07:34:32;;;;;;;181.27;161.60;;;24.70;84.90;;;;;;6338877;22;19999;-75
2022/09/06 07:36:58;;;;;;;210.75;181.63;;;24.80;85.10;;;;;;6339570;22;20002;-75
2022/09/06 07:39:23;;;;;;;199.57;178.23;;;24.90;84.70;;;;;;6338958;22;20306;-75
2022/09/06 07:41:49;;;;;;;23.08;20.45;;;25.00;85.00;;;;;;6338814;22;20025;-75
2022/09/06 07:44:15;;;;;;;11.88;9.35;;;25.00;85.00;;;;;;6339048;22;20002;-74
2022/09/06 07:46:40;;;;;;;10.48;7.95;;;25.10;84.90;;;;;;6339446;22;20427;-75
2022/09/06 07:49:06;;;;;;;6.68;5.32;;;25.10;84.90;;;;;;6331024;22;20424;-75
2022/09/06 07:51:32;;;;;;;8.93;6.85;;;25.20;84.70;;;;;;6336555;22;19995;-81
2022/09/06 07:53:58;;;;;;;9.10;5.22;;;25.20;84.70;;;;;;6335480;22;19998;-81
2022/09/06 07:56:24;;;;;;;5.78;3.85;;;25.30;84.70;;;;;;6338512;22;20093;-75
2022/09/06 07:58:51;;;;;;;6.38;4.88;;;25.40;84.50;;;;;;6356639;22;20065;-75
2022/09/06 08:01:34;;;;;;;6.03;4.55;;;25.60;84.50;;;;;;6366045;22;20428;-75
2022/09/06 08:04:01;;;;;;;6.10;4.82;;;25.70;84.40;;;;;;6369178;22;20444;-82
2022/09/06 08:06:29;;;;;;;7.72;4.82;;;25.80;84.50;;;;;;6366743;22;20005;-82
2022/09/06 08:08:55;;;;;;;7.47;4.45;;;25.90;84.40;;;;;;6339856;22;20531;-76
2022/09/06 08:11:24;;;;;;;4.38;3.53;;;25.90;84.30;;;;;;6368212;22;20098;-76
2022/09/06 08:13:53;;;;;;;8.68;3.55;;;26.00;84.20;;;;;;6368333;22;20041;-76
2022/09/06 08:16:20;;;;;;;7.55;4.10;;;26.10;84.20;;;;;;6368168;22;19998;-75
2022/09/06 08:18:53;;;;;;;5.80;3.90;;;26.20;84.00;;;;;;6368398;22;20009;-76
2022/09/06 08:21:19;;;;;;;3.83;3.40;;;26.30;83.80;;;;;;6367814;22;20002;-77
2022/09/06 08:23:48;;;;;;;7.72;3.75;;;26.40;83.60;;;;;;6368076;22;20025;-76
2022/09/06 08:26:15;;;;;;;5.60;3.80;;;26.50;83.50;;;;;;6340040;22;20455;-77
2022/09/06 08:28:42;;;;;;;4.55;3.80;;;26.60;83.20;;;;;;6367839;22;20006;-82
2022/09/06 08:31:10;;;;;;;9.43;4.88;;;26.70;82.40;;;;;;6339754;22;20459;-76
2022/09/06 08:33:38;;;;;;;10.55;6.20;;;26.70;81.80;;;;;;6367365;22;20356;-76
2022/09/06 08:36:06;;;;;;;4.30;3.10;;;26.70;80.50;;;;;;6338810;22;20089;-77
2022/09/06 08:38:32;;;;;;;4.68;3.20;;;26.80;81.70;;;;;;6339780;22;20003;-81
2022/09/06 08:41:09;;;;;;;5.97;3.40;;;26.90;81.50;;;;;;6368003;22;20002;-82
2022/09/06 08:43:36;;;;;;;5.55;2.88;;;26.90;80.80;;;;;;6340066;22;20002;-76
2022/09/06 08:46:03;;;;;;;5.68;3.72;;;27.00;81.00;;;;;;6367831;22;20026;-76
2022/09/06 08:48:33;;;;;;;3.53;2.63;;;27.20;80.50;;;;;;6366908;22;20115;-76
2022/09/06 08:51:23;;;;;;;6.00;3.47;;;27.30;80.30;;;;;;6339864;22;20006;-76
2022/09/06 08:53:55;;;;;;;4.50;3.13;;;27.40;80.10;;;;;;6367554;22;20036;-76
2022/09/06 08:56:33;;;;;;;6.68;3.70;;;27.50;79.80;;;;;;6339561;22;20010;-76
2022/09/06 08:59:19;;;;;;;4.80;2.67;;;27.60;79.20;;;;;;6367319;22;20448;-75
2022/09/06 09:02:08;;;;;;;3.00;2.50;;;27.70;78.90;;;;;;6339466;22;20009;-76
2022/09/06 09:04:35;;;;;;;4.10;2.33;;;27.90;78.60;;;;;;6368208;22;20002;-82
2022/09/06 09:07:37;;;;;;;2.92;2.47;;;28.00;78.20;;;;;;6338676;22;20032;-83
2022/09/06 09:10:11;;;;;;;6.13;3.50;;;28.10;77.70;;;;;;6334199;22;20009;-76
2022/09/06 09:12:46;;;;;;;7.13;2.95;;;28.20;77.10;;;;;;6339478;22;20010;-82
2022/09/06 09:15:15;;;;;;;5.82;2.70;;;28.50;76.90;;;;;;6339047;22;20093;-82
2022/09/06 09:17:43;;;;;;;6.95;2.90;;;28.60;76.50;;;;;;6367329;22;20069;-81
2022/09/06 09:20:09;;;;;;;4.15;2.97;;;28.70;75.90;;;;;;6339217;22;20002;-77
2022/09/06 09:22:37;;;;;;;8.57;4.10;;;28.80;75.60;;;;;;6338930;22;19998;-82
2022/09/06 09:25:05;;;;;;;4.18;3.03;;;28.80;75.20;;;;;;6367625;22;20073;-82
2022/09/06 09:27:32;;;;;;;10.45;3.17;;;28.90;75.00;;;;;;6366951;22;20014;-82
2022/09/06 09:30:00;;;;;;;8.75;4.03;;;29.00;74.90;;;;;;6367113;22;20089;-76
2022/09/06 09:32:34;;;;;;;7.50;3.50;;;29.10;74.70;;;;;;6366495;22;20331;-76
2022/09/06 09:35:25;;;;;;;6.78;3.53;;;29.20;74.60;;;;;;6367532;22;20006;-76
2022/09/06 09:38:00;;;;;;;8.82;4.18;;;29.30;74.40;;;;;;6366272;22;19998;-76
2022/09/06 09:40:32;;;;;;;7.63;4.28;;;29.50;74.40;;;;;;6340131;22;20006;-76
2022/09/06 09:43:20;;;;;;;10.27;4.00;;;29.60;74.10;;;;;;6368250;22;19994;-77
2022/09/06 09:46:15;;;;;;;8.10;4.53;;;29.80;73.40;;;;;;6342114;22;20006;-75
2022/09/06 09:49:05;;;;;;;7.03;4.00;;;29.90;73.00;;;;;;6367735;22;20063;-75
2022/09/06 09:51:37;;;;;;;9.00;5.53;;;30.00;72.50;;;;;;6367350;22;20002;-75
2022/09/06 09:54:06;;;;;;;12.00;6.75;;;30.00;72.60;;;;;;6367595;22;20093;-75
2022/09/06 09:56:51;;;;;;;8.47;5.00;;;30.10;72.60;;;;;;6339705;22;20002;-75
2022/09/06 09:59:20;;;;;;;12.32;7.13;;;30.10;72.80;;;;;;6367852;22;20085;-75
2022/09/06 10:01:46;;;;;;;10.90;5.55;;;30.10;72.70;;;;;;6367635;22;20030;-76
2022/09/06 10:04:30;;;;;;;11.18;6.00;;;30.20;72.90;;;;;;6340122;22;20032;-76
2022/09/06 10:07:08;;;;;;;10.60;6.75;;;30.20;72.70;;;;;;6339398;22;20007;-76
2022/09/06 10:09:37;;;;;;;7.50;6.10;;;30.40;72.60;;;;;;6367479;22;20003;-76
2022/09/06 10:12:03;;;;;;;9.25;5.32;;;30.40;72.70;;;;;;6367828;22;20454;-76
2022/09/06 10:14:31;;;;;;;8.25;5.35;;;30.50;72.60;;;;;;6367563;22;19995;-76
2022/09/06 10:16:58;;;;;;;9.25;5.10;;;30.60;72.60;;;;;;6368216;22;20009;-82
2022/09/06 10:19:37;;;;;;;9.10;4.95;;;30.70;72.40;;;;;;6340442;22;20010;-76
2022/09/06 10:22:27;;;;;;;10.10;5.45;;;30.80;71.80;;;;;;6366119;22;20051;-82
2022/09/06 10:25:31;;;;;;;5.85;4.03;;;30.90;71.00;;;;;;6348794;22;20424;-76
2022/09/06 10:28:40;;;;;;;7.22;4.40;;;31.10;70.60;;;;;;6341620;22;20010;-82
2022/09/06 10:31:42;;;;;;;9.17;5.03;;;31.20;70.70;;;;;;6364522;22;20006;-82
2022/09/06 10:34:10;;;;;;;5.43;3.90;;;31.20;70.80;;;;;;6369252;22;20022;-82
2022/09/06 10:36:39;;;;;;;4.75;3.85;;;31.40;71.30;;;;;;6337940;22;20014;-75
2022/09/06 10:39:23;;;;;;;6.43;3.63;;;31.50;71.00;;;;;;6368556;22;20002;-75
2022/09/06 10:41:53;;;;;;;5.45;3.40;;;31.60;70.70;;;;;;6369497;22;19999;-76
2022/09/06 10:44:40;;;;;;;8.13;3.33;;;31.70;70.70;;;;;;6340061;22;20010;-76
2022/09/06 10:47:12;;;;;;;6.85;3.13;;;31.80;70.20;;;;;;6370592;22;20019;-76
2022/09/06 10:49:42;;;;;;;3.08;2.65;;;31.90;70.40;;;;;;6369225;22;19998;-77
2022/09/06 10:52:14;;;;;;;4.70;2.90;;;32.10;70.50;;;;;;6370470;22;20006;-76
2022/09/06 10:54:41;;;;;;;3.63;2.15;;;32.20;69.60;;;;;;6343091;22;20085;-76
2022/09/06 10:57:20;;;;;;;2.90;2.30;;;32.40;69.00;;;;;;6370982;22;20036;-76
2022/09/06 11:00:02;;;;;;;3.08;2.10;;;32.40;68.20;;;;;;6338672;22;20011;-76
2022/09/06 11:02:46;;;;;;;2.42;2.10;;;32.60;67.10;;;;;;6332896;22;20005;-76
2022/09/06 11:05:19;;;;;;;2.95;2.00;;;32.60;65.90;;;;;;6336629;22;20408;-76
2022/09/06 11:08:06;;;;;;;3.95;1.98;;;32.70;66.40;;;;;;6332914;22;20006;-73
2022/09/06 11:10:44;;;;;;;4.50;2.03;;;32.90;65.20;;;;;;6334629;22;19999;-77
2022/09/06 11:13:18;;;;;;;3.67;2.00;;;33.00;63.80;;;;;;6335808;22;20113;-76
2022/09/06 11:16:07;;;;;;;3.00;2.00;;;33.00;63.10;;;;;;6330525;22;20037;-76
2022/09/06 11:18:52;;;;;;;2.95;1.77;;;33.00;63.90;;;;;;6337944;22;19998;-84
2022/09/06 11:21:49;;;;;;;6.35;2.10;;;33.10;63.60;;;;;;6338693;22;20027;-85
2022/09/06 11:24:38;;;;;;;2.78;2.15;;;33.10;61.10;;;;;;6335875;22;20081;-76
2022/09/06 11:27:23;;;;;;;2.80;1.73;;;33.10;61.40;;;;;;6337717;22;20056;-76
2022/09/06 11:29:55;;;;;;;5.05;2.25;;;33.10;62.50;;;;;;6335524;22;20421;-78
2022/09/06 11:32:31;;;;;;;4.05;1.90;;;33.20;62.30;;;;;;6337829;22;20059;-77
2022/09/06 11:35:01;;;;;;;2.90;1.77;;;33.50;61.20;;;;;;6335155;22;20010;-77
2022/09/06 11:37:31;;;;;;;2.25;1.95;;;33.70;61.40;;;;;;6336255;22;20013;-78
2022/09/06 11:40:13;;;;;;;4.00;2.33;;;33.90;60.70;;;;;;6335225;22;20052;-79
2022/09/06 11:42:44;;;;;;;3.42;1.90;;;34.00;60.00;;;;;;6337661;22;19995;-78
2022/09/06 11:45:10;;;;;;;2.55;1.95;;;34.20;59.90;;;;;;6338279;22;20030;-77
2022/09/06 11:47:44;;;;;;;4.57;2.33;;;34.40;59.70;;;;;;6336786;22;20003;-77
2022/09/06 11:50:19;;;;;;;5.65;2.30;;;34.60;58.80;;;;;;6340099;22;20074;-84
2022/09/06 11:53:07;;;;;;;8.27;2.22;;;34.80;58.60;;;;;;6340062;22;20074;-77
2022/09/06 11:55:40;;;;;;;4.97;2.00;;;34.90;57.70;;;;;;6337771;22;20003;-77
2022/09/06 11:58:15;;;;;;;2.63;1.77;;;35.10;57.60;;;;;;6340297;22;20029;-84
2022/09/06 12:00:41;;;;;;;2.75;2.10;;;35.10;57.10;;;;;;6341444;22;19995;-83
2022/09/06 12:03:09;;;;;;;2.63;1.55;;;35.10;57.40;;;;;;6342352;22;20011;-82
2022/09/06 12:06:13;;;;;;;4.13;2.05;;;35.10;57.40;;;;;;6340626;22;20375;-85
2022/09/06 12:08:45;;;;;;;3.30;2.10;;;35.10;55.70;;;;;;6342355;22;20007;-82
2022/09/06 12:11:37;;;;;;;4.20;2.00;;;35.20;56.20;;;;;;6343208;22;20013;-83
2022/09/06 12:14:03;;;;;;;5.78;1.88;;;35.30;56.10;;;;;;6337466;22;20473;-77
2022/09/06 12:16:56;;;;;;;3.72;1.75;;;35.30;56.40;;;;;;6336865;22;19998;-84
2022/09/06 12:19:50;;;;;;;5.07;2.33;;;35.30;56.20;;;;;;6338075;22;20006;-84
2022/09/06 12:22:28;;;;;;;3.80;2.00;;;35.40;55.00;;;;;;6338231;22;20007;-84
2022/09/06 12:25:39;;;;;;;2.90;2.47;;;35.50;55.70;;;;;;6338161;22;20030;-84
2022/09/06 12:28:11;;;;;;;4.07;1.73;;;35.40;55.40;;;;;;6337990;22;19994;-84
2022/09/06 12:30:42;;;;;;;2.85;1.98;;;35.40;55.00;;;;;;6338626;22;20016;-84
2022/09/06 12:33:30;;;;;;;5.38;2.47;;;35.50;55.50;;;;;;6339282;22;19994;-85
2022/09/06 12:36:15;;;;;;;6.00;2.13;;;35.50;54.70;;;;;;6339405;22;20286;-84
2022/09/06 12:39:03;;;;;;;3.15;2.30;;;35.50;55.20;;;;;;6339365;22;20079;-84
2022/09/06 12:41:35;;;;;;;2.78;2.15;;;35.50;55.50;;;;;;6338134;22;19998;-84
2022/09/06 12:44:04;;;;;;;4.80;2.42;;;35.40;55.60;;;;;;6339291;22;20070;-85
2022/09/06 12:46:31;;;;;;;2.53;1.90;;;35.40;55.70;;;;;;6339532;22;19994;-84
2022/09/06 12:49:09;;;;;;;4.90;2.78;;;35.40;55.90;;;;;;6337652;22;20010;-82
2022/09/06 12:51:37;;;;;;;2.92;2.17;;;35.40;55.80;;;;;;6337106;22;20014;-83
2022/09/06 12:54:15;;;;;;;9.07;2.85;;;35.40;56.10;;;;;;6336401;22;20010;-77
2022/09/06 12:56:41;;;;;;;3.25;2.50;;;35.40;56.20;;;;;;6336436;22;20375;-77
2022/09/06 12:59:26;;;;;;;3.63;2.20;;;35.40;56.10;;;;;;6359080;22;20374;-78
2022/09/06 13:01:59;;;;;;;4.35;2.53;;;35.50;56.10;;;;;;6366939;22;20467;-79
2022/09/06 13:04:40;;;;;;;3.97;2.13;;;35.40;56.30;;;;;;6368528;22;19999;-79